Time;durP1;ratioP1;P1;durP2;ratioP2;P2;SDS_P1;SDS_P2;PMS_P1;PMS_P2;Temp;Humidity;BMP_temperature;BMP_pressure;BME280_temperature;BME280_humidity;BME280_pressure;Samples;Min_cycle;Max_cycle;Signal;HPM_P1;HPM_P2
2023/03/05 00:00:43;;;;;;;7.32;5.68;;;;;;;;;;5006581;28;20366;-67
2023/03/05 00:03:09;;;;;;;6.90;5.70;;;;;;;;;;5000359;28;20047;-70
2023/03/05 00:05:34;;;;;;;6.60;5.47;;;;;;;;;;5007550;28;20846;-70
2023/03/05 00:07:59;;;;;;;7.55;5.78;;;;;;;;;;5006162;28;20041;-67
2023/03/05 00:10:25;;;;;;;7.80;5.43;;;;;;;;;;4998989;28;20048;-67
2023/03/05 00:12:50;;;;;;;6.25;5.53;;;;;;;;;;5019035;28;20045;-65
2023/03/05 00:15:15;;;;;;;8.10;6.20;;;;;;;;;;5020881;28;20025;-66
2023/03/05 00:17:41;;;;;;;7.20;5.93;;;;;;;;;;5001262;28;20041;-67
2023/03/05 00:20:06;;;;;;;7.53;5.95;;;;;;;;;;5007880;28;20136;-66
2023/03/05 00:22:33;;;;;;;7.78;6.00;;;;;;;;;;5011392;28;20057;-72
2023/03/05 00:24:58;;;;;;;6.65;5.43;;;;;;;;;;5028323;28;20507;-70
2023/03/05 00:27:23;;;;;;;7.27;5.57;;;;;;;;;;5029237;28;20040;-69
2023/03/05 00:29:48;;;;;;;7.70;6.10;;;;;;;;;;5011852;28;20683;-69
2023/03/05 00:32:14;;;;;;;7.10;5.93;;;;;;;;;;5008718;28;20334;-70
2023/03/05 00:34:39;;;;;;;7.25;5.72;;;;;;;;;;5012260;28;20060;-70
2023/03/05 00:37:04;;;;;;;7.63;6.10;;;;;;;;;;5006827;28;20417;-66
2023/03/05 00:39:30;;;;;;;7.22;5.95;;;;;;;;;;5011817;28;20276;-70
2023/03/05 00:41:55;;;;;;;7.57;6.15;;;;;;;;;;5008449;28;20037;-69
2023/03/05 00:44:20;;;;;;;9.00;5.72;;;;;;;;;;5005315;28;20033;-67
2023/03/05 00:46:46;;;;;;;7.03;5.80;;;;;;;;;;5030313;28;20146;-67
2023/03/05 00:49:11;;;;;;;7.45;5.93;;;;;;;;;;5030140;28;20056;-71
2023/03/05 00:51:36;;;;;;;7.43;5.67;;;;;;;;;;5012204;28;20086;-67
2023/03/05 00:54:02;;;;;;;8.10;6.07;;;;;;;;;;5011643;28;20282;-66
2023/03/05 00:56:27;;;;;;;7.72;5.93;;;;;;;;;;5022522;28;20880;-65
2023/03/05 00:58:52;;;;;;;8.25;6.60;;;;;;;;;;5010254;28;20033;-69
2023/03/05 01:01:18;;;;;;;7.53;6.22;;;;;;;;;;5028648;28;20120;-70
2023/03/05 01:03:43;;;;;;;6.97;5.95;;;;;;;;;;5013181;28;20402;-65
2023/03/05 01:06:09;;;;;;;9.15;6.30;;;;;;;;;;5027310;28;20098;-70
2023/03/05 01:08:34;;;;;;;7.10;6.03;;;;;;;;;;5027395;28;20053;-68
2023/03/05 01:11:00;;;;;;;7.87;5.97;;;;;;;;;;5018111;28;20751;-69
2023/03/05 01:13:25;;;;;;;7.45;6.18;;;;;;;;;;5013397;28;20271;-65
2023/03/05 01:15:50;;;;;;;7.70;6.35;;;;;;;;;;5011878;28;20504;-66
2023/03/05 01:18:16;;;;;;;7.57;6.13;;;;;;;;;;5011224;28;20033;-69
2023/03/05 01:20:41;;;;;;;7.53;5.60;;;;;;;;;;5024680;28;20142;-67
2023/03/05 01:23:07;;;;;;;8.27;6.00;;;;;;;;;;5009385;28;20129;-70
2023/03/05 01:25:32;;;;;;;7.20;5.87;;;;;;;;;;5027810;28;20033;-69
2023/03/05 01:27:57;;;;;;;7.17;5.67;;;;;;;;;;5009967;28;20767;-70
2023/03/05 01:30:22;;;;;;;7.97;5.80;;;;;;;;;;5002398;28;20338;-67
2023/03/05 01:32:48;;;;;;;8.13;6.20;;;;;;;;;;5027919;28;20024;-70
2023/03/05 01:35:17;;;;;;;8.53;6.33;;;;;;;;;;5010945;28;20045;-71
2023/03/05 01:37:42;;;;;;;8.55;6.95;;;;;;;;;;5025986;28;20283;-68
2023/03/05 01:40:08;;;;;;;7.72;6.10;;;;;;;;;;5007864;28;20116;-65
2023/03/05 01:42:34;;;;;;;8.20;6.22;;;;;;;;;;5024406;28;20036;-68
2023/03/05 01:45:01;;;;;;;7.18;5.72;;;;;;;;;;5027546;28;20554;-71
2023/03/05 01:47:26;;;;;;;7.25;5.85;;;;;;;;;;5027224;28;20029;-67
2023/03/05 01:49:53;;;;;;;6.93;5.88;;;;;;;;;;5027202;28;20055;-68
2023/03/05 01:52:18;;;;;;;7.40;5.90;;;;;;;;;;5026241;28;20476;-66
2023/03/05 01:54:45;;;;;;;8.20;6.63;;;;;;;;;;5010733;28;20083;-69
2023/03/05 01:57:20;;;;;;;7.47;6.22;;;;;;;;;;5037277;28;20033;-67
2023/03/05 01:59:47;;;;;;;8.30;6.40;;;;;;;;;;5022522;28;20033;-66
2023/03/05 02:02:12;;;;;;;10.18;7.00;;;;;;;;;;5025830;28;20100;-66
2023/03/05 02:04:45;;;;;;;8.37;6.13;;;;;;;;;;5022912;28;20099;-66
2023/03/05 02:07:11;;;;;;;7.68;5.90;;;;;;;;;;4996753;28;20041;-70
2023/03/05 02:09:37;;;;;;;7.57;5.97;;;;;;;;;;5006591;28;20045;-67
2023/03/05 02:12:02;;;;;;;8.38;6.40;;;;;;;;;;5009023;28;20032;-69
2023/03/05 02:14:27;;;;;;;8.52;6.43;;;;;;;;;;5026399;28;20033;-67
2023/03/05 02:16:53;;;;;;;8.10;5.83;;;;;;;;;;5008111;28;20456;-70
2023/03/05 02:19:18;;;;;;;8.32;6.30;;;;;;;;;;5008208;28;20272;-68
2023/03/05 02:21:44;;;;;;;7.27;6.17;;;;;;;;;;5025494;28;20021;-67
2023/03/05 02:24:10;;;;;;;8.93;6.32;;;;;;;;;;5009258;28;20682;-67
2023/03/05 02:26:35;;;;;;;8.02;6.60;;;;;;;;;;5026132;28;20843;-69
2023/03/05 02:29:01;;;;;;;7.27;6.10;;;;;;;;;;5009666;28;20052;-65
2023/03/05 02:31:26;;;;;;;7.60;5.80;;;;;;;;;;5001415;28;20633;-67
2023/03/05 02:33:52;;;;;;;8.20;6.28;;;;;;;;;;5002946;28;20291;-66
2023/03/05 02:36:18;;;;;;;8.90;6.57;;;;;;;;;;5028098;28;20118;-70
2023/03/05 02:38:43;;;;;;;7.88;6.25;;;;;;;;;;5006348;28;20517;-70
2023/03/05 02:41:08;;;;;;;8.95;6.70;;;;;;;;;;5010236;28;20045;-72
2023/03/05 02:43:34;;;;;;;7.60;6.20;;;;;;;;;;5026793;28;20036;-66
2023/03/05 02:45:59;;;;;;;7.38;5.93;;;;;;;;;;5044800;28;20325;-70
2023/03/05 02:48:24;;;;;;;8.80;6.13;;;;;;;;;;5026610;28;20032;-67
2023/03/05 02:50:50;;;;;;;7.78;6.00;;;;;;;;;;5018122;28;20091;-65
2023/03/05 02:53:15;;;;;;;7.68;6.35;;;;;;;;;;5039778;28;20098;-72
2023/03/05 02:55:40;;;;;;;7.65;5.90;;;;;;;;;;5009442;28;20112;-70
2023/03/05 02:58:06;;;;;;;8.65;6.32;;;;;;;;;;5007015;28;20115;-70
2023/03/05 03:00:31;;;;;;;7.57;5.97;;;;;;;;;;5023545;28;20033;-67
2023/03/05 03:02:56;;;;;;;8.07;6.38;;;;;;;;;;5009281;28;20037;-69
2023/03/05 03:05:21;;;;;;;8.30;6.37;;;;;;;;;;5005187;28;20040;-67
2023/03/05 03:07:47;;;;;;;8.30;6.73;;;;;;;;;;5000147;28;20914;-70
2023/03/05 03:10:12;;;;;;;7.93;6.57;;;;;;;;;;5008949;28;20735;-69
2023/03/05 03:12:38;;;;;;;7.97;6.50;;;;;;;;;;5008616;28;20082;-65
2023/03/05 03:15:03;;;;;;;7.72;5.88;;;;;;;;;;5015826;28;20305;-70
2023/03/05 03:17:28;;;;;;;8.32;6.20;;;;;;;;;;5005372;28;20108;-69
2023/03/05 03:19:54;;;;;;;7.50;5.70;;;;;;;;;;5006500;28;20428;-71
2023/03/05 03:22:19;;;;;;;7.25;5.53;;;;;;;;;;4997689;28;20333;-72
2023/03/05 03:24:44;;;;;;;7.55;6.03;;;;;;;;;;5004858;28;20041;-70
2023/03/05 03:27:09;;;;;;;8.00;6.57;;;;;;;;;;5018054;28;20053;-66
2023/03/05 03:29:35;;;;;;;7.77;5.77;;;;;;;;;;5038507;28;20441;-65
2023/03/05 03:32:00;;;;;;;8.32;6.47;;;;;;;;;;5007662;28;20268;-70
2023/03/05 03:34:25;;;;;;;8.07;6.43;;;;;;;;;;5026738;28;20041;-70
2023/03/05 03:36:54;;;;;;;9.27;6.70;;;;;;;;;;5039575;28;20037;-67
2023/03/05 03:39:19;;;;;;;8.32;6.28;;;;;;;;;;5024341;28;20036;-69
2023/03/05 03:41:45;;;;;;;7.55;6.20;;;;;;;;;;5022649;28;20038;-69
2023/03/05 03:44:10;;;;;;;7.10;6.10;;;;;;;;;;5007208;28;20151;-71
2023/03/05 03:46:36;;;;;;;8.75;6.28;;;;;;;;;;5022760;28;20063;-68
2023/03/05 03:49:01;;;;;;;8.32;6.22;;;;;;;;;;5020978;28;20052;-68
2023/03/05 03:51:27;;;;;;;7.13;5.95;;;;;;;;;;5025295;28;20029;-70
2023/03/05 03:53:52;;;;;;;8.20;6.50;;;;;;;;;;5019278;28;20508;-69
2023/03/05 03:56:17;;;;;;;7.93;6.43;;;;;;;;;;5000525;28;20044;-66
2023/03/05 03:58:43;;;;;;;8.85;6.50;;;;;;;;;;5003728;28;20037;-70
2023/03/05 04:01:08;;;;;;;8.15;6.18;;;;;;;;;;5025643;28;20047;-71
2023/03/05 04:03:33;;;;;;;7.90;6.20;;;;;;;;;;5016486;28;20139;-71
2023/03/05 04:05:58;;;;;;;7.57;6.30;;;;;;;;;;5003744;28;20283;-65
2023/03/05 04:08:24;;;;;;;7.97;6.40;;;;;;;;;;5012270;28;20272;-71
2023/03/05 04:10:49;;;;;;;7.53;6.28;;;;;;;;;;5027757;28;20803;-71
2023/03/05 04:13:14;;;;;;;7.50;5.70;;;;;;;;;;5011786;28;20029;-71
2023/03/05 04:15:39;;;;;;;8.13;6.47;;;;;;;;;;5005407;28;20390;-71
2023/03/05 04:18:05;;;;;;;7.80;6.15;;;;;;;;;;5042329;28;20659;-67
2023/03/05 04:20:30;;;;;;;7.97;5.97;;;;;;;;;;5013227;28;20059;-69
2023/03/05 04:22:55;;;;;;;8.23;6.30;;;;;;;;;;5008642;28;20767;-70
2023/03/05 04:25:20;;;;;;;7.88;6.30;;;;;;;;;;5012638;28;20041;-68
2023/03/05 04:27:46;;;;;;;8.20;6.45;;;;;;;;;;5026381;28;20133;-70
2023/03/05 04:30:13;;;;;;;7.63;6.07;;;;;;;;;;5008735;28;20810;-66
2023/03/05 04:32:38;;;;;;;7.43;6.28;;;;;;;;;;5033622;28;20268;-70
2023/03/05 04:35:04;;;;;;;7.60;5.97;;;;;;;;;;5004884;28;20539;-70
2023/03/05 04:37:29;;;;;;;7.78;5.55;;;;;;;;;;5000491;28;20338;-71
2023/03/05 04:39:54;;;;;;;8.35;5.97;;;;;;;;;;5024662;28;20090;-71
2023/03/05 04:42:20;;;;;;;7.43;5.97;;;;;;;;;;5022548;28;20042;-70
2023/03/05 04:44:48;;;;;;;8.98;6.00;;;;;;;;;;5023492;28;20275;-67
2023/03/05 04:47:13;;;;;;;8.00;5.90;;;;;;;;;;5008553;28;20152;-70
2023/03/05 04:49:39;;;;;;;6.85;5.75;;;;;;;;;;5025312;28;20136;-70
2023/03/05 04:52:04;;;;;;;8.67;6.47;;;;;;;;;;5008500;28;20139;-70
2023/03/05 04:54:29;;;;;;;8.20;6.33;;;;;;;;;;5007261;28;20276;-67
2023/03/05 04:56:54;;;;;;;7.00;5.90;;;;;;;;;;5024849;28;20283;-72
2023/03/05 04:59:19;;;;;;;7.60;5.82;;;;;;;;;;5007917;28;20711;-66
2023/03/05 05:01:45;;;;;;;7.80;5.88;;;;;;;;;;5010760;28;20039;-67
2023/03/05 05:04:10;;;;;;;8.10;6.13;;;;;;;;;;5007859;28;20052;-69
2023/03/05 05:06:35;;;;;;;10.23;6.47;;;;;;;;;;5009298;28;20363;-71
2023/03/05 05:09:01;;;;;;;6.73;5.90;;;;;;;;;;5010359;28;20037;-70
2023/03/05 05:11:26;;;;;;;7.53;5.82;;;;;;;;;;5029872;28;20275;-66
2023/03/05 05:13:51;;;;;;;6.97;5.50;;;;;;;;;;5009222;28;20041;-69
2023/03/05 05:16:16;;;;;;;7.93;5.73;;;;;;;;;;5008932;28;20335;-70
2023/03/05 05:18:41;;;;;;;7.63;6.03;;;;;;;;;;5008914;28;20998;-68
2023/03/05 05:21:07;;;;;;;8.33;5.67;;;;;;;;;;5024712;28;20302;-70
2023/03/05 05:23:33;;;;;;;8.40;6.05;;;;;;;;;;5028136;28;20276;-70
2023/03/05 05:25:59;;;;;;;9.30;6.30;;;;;;;;;;5027963;28;20033;-70
2023/03/05 05:28:24;;;;;;;8.00;6.10;;;;;;;;;;5006047;28;20291;-71
2023/03/05 05:30:49;;;;;;;8.15;6.28;;;;;;;;;;5019338;28;20052;-67
2023/03/05 05:33:14;;;;;;;7.38;6.10;;;;;;;;;;5003479;28;20064;-65
2023/03/05 05:35:40;;;;;;;8.02;6.35;;;;;;;;;;5007487;28;21070;-65
2023/03/05 05:38:05;;;;;;;7.67;6.13;;;;;;;;;;5010358;28;20029;-70
2023/03/05 05:40:30;;;;;;;7.97;5.93;;;;;;;;;;5031571;28;20286;-69
2023/03/05 05:42:55;;;;;;;8.00;6.05;;;;;;;;;;5011369;28;20451;-69
2023/03/05 05:45:21;;;;;;;7.82;5.80;;;;;;;;;;5042489;28;20060;-69
2023/03/05 05:47:46;;;;;;;7.65;6.15;;;;;;;;;;5013147;28;20163;-67
2023/03/05 05:50:11;;;;;;;8.23;6.50;;;;;;;;;;5009479;28;20045;-69
2023/03/05 05:52:37;;;;;;;8.25;6.30;;;;;;;;;;5026954;28;20271;-66
2023/03/05 05:55:02;;;;;;;7.65;6.00;;;;;;;;;;5010655;28;20115;-71
2023/03/05 05:57:27;;;;;;;8.85;6.85;;;;;;;;;;5009520;28;20037;-74
2023/03/05 05:59:53;;;;;;;8.60;6.07;;;;;;;;;;5010919;28;20041;-69
2023/03/05 06:02:18;;;;;;;8.70;6.23;;;;;;;;;;5009065;28;20436;-73
2023/03/05 06:04:43;;;;;;;8.45;6.05;;;;;;;;;;5043869;28;20390;-74
2023/03/05 06:07:08;;;;;;;7.70;6.00;;;;;;;;;;5007757;28;20515;-75
2023/03/05 06:09:34;;;;;;;9.25;6.50;;;;;;;;;;5011594;28;20307;-65
2023/03/05 06:11:59;;;;;;;8.98;6.28;;;;;;;;;;5036389;28;20028;-70
2023/03/05 06:14:25;;;;;;;8.73;6.10;;;;;;;;;;5026958;28;20709;-67
2023/03/05 06:16:50;;;;;;;7.65;5.95;;;;;;;;;;5013452;28;20299;-69
2023/03/05 06:19:15;;;;;;;7.55;5.90;;;;;;;;;;5002326;28;20577;-66
2023/03/05 06:21:42;;;;;;;8.52;6.22;;;;;;;;;;5021874;28;20127;-64
2023/03/05 06:24:07;;;;;;;7.63;5.72;;;;;;;;;;5034325;28;20061;-68
2023/03/05 06:26:32;;;;;;;8.30;6.45;;;;;;;;;;5021885;28;20174;-68
2023/03/05 06:28:58;;;;;;;7.30;5.43;;;;;;;;;;5003230;28;20543;-67
2023/03/05 06:31:26;;;;;;;7.65;5.97;;;;;;;;;;5036238;28;20326;-70
2023/03/05 06:33:53;;;;;;;7.85;6.38;;;;;;;;;;5017076;28;20052;-70
2023/03/05 06:36:18;;;;;;;7.82;6.10;;;;;;;;;;5006395;28;20044;-69
2023/03/05 06:38:44;;;;;;;9.07;6.57;;;;;;;;;;5015793;28;20106;-65
2023/03/05 06:41:10;;;;;;;8.32;6.70;;;;;;;;;;5020195;28;20425;-73
2023/03/05 06:43:37;;;;;;;8.20;6.38;;;;;;;;;;5015013;28;20047;-65
2023/03/05 06:46:06;;;;;;;9.70;6.18;;;;;;;;;;5018178;28;20029;-71
2023/03/05 06:48:32;;;;;;;9.88;6.57;;;;;;;;;;5017827;28;20049;-67
2023/03/05 06:50:57;;;;;;;10.02;6.85;;;;;;;;;;5014959;28;20519;-73
2023/03/05 06:53:23;;;;;;;8.77;6.72;;;;;;;;;;5015789;28;20033;-73
2023/03/05 06:55:48;;;;;;;9.07;6.43;;;;;;;;;;5014900;28;20033;-68
2023/03/05 06:58:13;;;;;;;9.40;6.97;;;;;;;;;;5032575;28;20452;-66
2023/03/05 07:00:38;;;;;;;8.17;6.30;;;;;;;;;;5034178;28;20353;-64
2023/03/05 07:03:04;;;;;;;9.93;6.40;;;;;;;;;;5032777;28;20052;-66
2023/03/05 07:05:29;;;;;;;7.53;5.73;;;;;;;;;;5032509;28;20044;-70
2023/03/05 07:07:54;;;;;;;8.10;6.53;;;;;;;;;;5036125;28;20049;-66
2023/03/05 07:10:19;;;;;;;9.37;6.37;;;;;;;;;;5032968;28;20410;-73
2023/03/05 07:12:45;;;;;;;8.82;6.57;;;;;;;;;;5033963;28;20381;-66
2023/03/05 07:15:10;;;;;;;8.43;6.23;;;;;;;;;;5033439;28;20041;-75
2023/03/05 07:17:35;;;;;;;7.95;6.07;;;;;;;;;;5004144;28;20871;-65
2023/03/05 07:20:01;;;;;;;7.60;6.03;;;;;;;;;;5003744;28;20036;-64
2023/03/05 07:22:26;;;;;;;7.35;5.93;;;;;;;;;;5032967;28;20295;-68
2023/03/05 07:24:51;;;;;;;8.33;6.60;;;;;;;;;;5014320;28;20032;-69
2023/03/05 07:27:16;;;;;;;9.00;6.50;;;;;;;;;;5016411;28;20055;-70
2023/03/05 07:29:42;;;;;;;9.20;6.53;;;;;;;;;;5034625;28;20807;-69
2023/03/05 07:32:07;;;;;;;8.25;6.50;;;;;;;;;;5032298;28;20040;-70
2023/03/05 07:34:32;;;;;;;8.97;6.67;;;;;;;;;;5013280;28;20041;-70
2023/03/05 07:36:57;;;;;;;8.97;6.43;;;;;;;;;;5024433;28;20033;-70
2023/03/05 07:39:23;;;;;;;8.67;6.63;;;;;;;;;;5037622;28;20446;-68
2023/03/05 07:41:50;;;;;;;8.57;6.13;;;;;;;;;;5037057;28;20965;-65
2023/03/05 07:44:16;;;;;;;7.63;5.90;;;;;;;;;;5037656;28;20403;-70
2023/03/05 07:46:41;;;;;;;8.32;6.40;;;;;;;;;;5009198;28;20060;-67
2023/03/05 07:49:06;;;;;;;7.77;5.97;;;;;;;;;;5037903;28;20171;-69
2023/03/05 07:51:32;;;;;;;8.67;6.20;;;;;;;;;;5020526;28;20048;-66
2023/03/05 07:53:57;;;;;;;8.10;6.50;;;;;;;;;;5037811;28;20288;-72
2023/03/05 07:56:30;;;;;;;9.35;6.53;;;;;;;;;;5037795;28;20067;-72
2023/03/05 07:58:56;;;;;;;8.80;6.28;;;;;;;;;;5019221;28;20042;-65
2023/03/05 08:01:21;;;;;;;8.25;6.28;;;;;;;;;;5007197;28;20610;-66
2023/03/05 08:03:46;;;;;;;8.00;6.50;;;;;;;;;;5001799;28;20041;-68
2023/03/05 08:06:12;;;;;;;8.07;6.37;;;;;;;;;;5005809;28;20096;-65
2023/03/05 08:08:37;;;;;;;9.30;6.50;;;;;;;;;;5004080;28;20736;-73
2023/03/05 08:11:05;;;;;;;9.43;6.70;;;;;;;;;;5036993;28;20470;-72
2023/03/05 08:13:30;;;;;;;8.65;6.60;;;;;;;;;;5025135;28;20299;-68
2023/03/05 08:15:55;;;;;;;7.70;6.05;;;;;;;;;;5003716;28;20496;-68
2023/03/05 08:18:21;;;;;;;8.77;6.37;;;;;;;;;;5005443;28;20075;-73
2023/03/05 08:20:46;;;;;;;8.80;6.80;;;;;;;;;;5019374;28;20290;-66
2023/03/05 08:23:11;;;;;;;9.47;6.83;;;;;;;;;;5003849;28;20037;-68
2023/03/05 08:25:37;;;;;;;8.32;6.47;;;;;;;;;;5037455;28;20374;-67
2023/03/05 08:28:02;;;;;;;8.02;6.20;;;;;;;;;;5036656;28;20118;-67
2023/03/05 08:30:28;;;;;;;8.82;6.55;;;;;;;;;;5035154;28;20064;-71
2023/03/05 08:32:53;;;;;;;8.52;6.63;;;;;;;;;;5008150;28;20029;-69
2023/03/05 08:35:19;;;;;;;8.50;6.57;;;;;;;;;;5003610;28;20061;-63
2023/03/05 08:37:44;;;;;;;8.35;6.35;;;;;;;;;;5000466;28;20029;-72
2023/03/05 08:40:10;;;;;;;8.30;6.30;;;;;;;;;;5034234;28;20195;-61
2023/03/05 08:42:35;;;;;;;8.32;6.28;;;;;;;;;;5037603;28;20288;-69
2023/03/05 08:45:00;;;;;;;9.27;6.70;;;;;;;;;;5037734;28;20033;-68
2023/03/05 08:47:26;;;;;;;7.60;6.10;;;;;;;;;;5031419;28;20951;-64
2023/03/05 08:49:56;;;;;;;8.55;6.35;;;;;;;;;;5035139;28;20064;-68
2023/03/05 08:52:21;;;;;;;9.55;6.63;;;;;;;;;;5030803;28;20123;-65
2023/03/05 08:54:46;;;;;;;8.68;6.15;;;;;;;;;;5031871;28;20610;-66
2023/03/05 08:57:12;;;;;;;8.15;6.35;;;;;;;;;;5033374;28;22374;-74
2023/03/05 08:59:37;;;;;;;8.33;5.97;;;;;;;;;;5019346;28;20037;-70
2023/03/05 09:02:02;;;;;;;7.95;5.90;;;;;;;;;;5000707;28;20763;-71
2023/03/05 09:04:27;;;;;;;7.85;6.03;;;;;;;;;;4999765;28;20045;-68
2023/03/05 09:06:53;;;;;;;7.97;6.38;;;;;;;;;;5016061;28;20045;-69
2023/03/05 09:09:21;;;;;;;8.73;6.17;;;;;;;;;;5015029;28;20132;-68
2023/03/05 09:11:47;;;;;;;8.40;6.18;;;;;;;;;;5013749;28;20380;-65
2023/03/05 09:14:12;;;;;;;9.60;6.75;;;;;;;;;;5032465;28;20442;-73
2023/03/05 09:16:39;;;;;;;8.47;6.13;;;;;;;;;;5020945;28;20045;-72
2023/03/05 09:19:05;;;;;;;8.00;6.43;;;;;;;;;;5018603;28;20033;-69
2023/03/05 09:21:30;;;;;;;11.20;6.57;;;;;;;;;;5020802;28;20039;-63
2023/03/05 09:23:58;;;;;;;8.30;6.00;;;;;;;;;;5018730;28;20569;-68
2023/03/05 09:26:23;;;;;;;14.85;11.05;;;;;;;;;;5018045;28;20294;-73
2023/03/05 09:28:49;;;;;;;7.77;6.40;;;;;;;;;;4999054;28;20057;-73
2023/03/05 09:31:14;;;;;;;9.68;6.25;;;;;;;;;;5034658;28;20986;-67
2023/03/05 09:33:40;;;;;;;7.85;5.63;;;;;;;;;;5036629;28;20048;-63
2023/03/05 09:36:12;;;;;;;8.40;5.73;;;;;;;;;;5034964;28;20406;-67
2023/03/05 09:38:39;;;;;;;8.50;5.90;;;;;;;;;;5019307;28;20311;-72
2023/03/05 09:41:06;;;;;;;9.25;7.07;;;;;;;;;;5018759;28;20516;-70
2023/03/05 09:43:50;;;;;;;8.65;6.13;;;;;;;;;;5016737;28;20029;-73
2023/03/05 09:46:22;;;;;;;9.60;6.45;;;;;;;;;;5029183;28;20043;-69
2023/03/05 09:48:51;;;;;;;8.15;6.20;;;;;;;;;;5035208;28;20032;-65
2023/03/05 09:51:23;;;;;;;10.55;6.60;;;;;;;;;;5004045;28;20024;-62
2023/03/05 09:54:00;;;;;;;9.38;6.53;;;;;;;;;;5001581;28;20061;-67
2023/03/05 09:56:27;;;;;;;9.18;6.05;;;;;;;;;;5015481;28;20144;-72
2023/03/05 09:58:57;;;;;;;8.95;6.03;;;;;;;;;;5014376;28;20051;-66
2023/03/05 10:01:43;;;;;;;10.38;6.30;;;;;;;;;;5015426;28;20029;-65
2023/03/05 10:04:08;;;;;;;8.43;6.47;;;;;;;;;;5034380;28;20070;-69
2023/03/05 10:06:51;;;;;;;8.13;6.20;;;;;;;;;;5015031;28;20045;-64
2023/03/05 10:09:21;;;;;;;12.40;7.90;;;;;;;;;;5002622;28;20041;-69
2023/03/05 10:11:46;;;;;;;9.07;6.15;;;;;;;;;;5013169;28;20568;-67
2023/03/05 10:14:18;;;;;;;9.07;6.47;;;;;;;;;;5031573;28;20084;-65
2023/03/05 10:16:55;;;;;;;9.30;6.60;;;;;;;;;;5001376;28;20296;-67
2023/03/05 10:19:31;;;;;;;8.30;6.18;;;;;;;;;;5029406;28;20036;-66
2023/03/05 10:22:00;;;;;;;9.75;5.97;;;;;;;;;;5029744;28;20229;-68
2023/03/05 10:24:44;;;;;;;8.75;6.10;;;;;;;;;;5013292;28;20068;-68
2023/03/05 10:27:20;;;;;;;7.72;6.20;;;;;;;;;;5030768;28;21794;-66
2023/03/05 10:29:48;;;;;;;8.85;6.35;;;;;;;;;;5003790;28;20060;-66
2023/03/05 10:32:31;;;;;;;9.27;5.93;;;;;;;;;;5033135;28;20088;-65
2023/03/05 10:34:57;;;;;;;9.63;6.22;;;;;;;;;;5035411;28;20044;-69
2023/03/05 10:37:34;;;;;;;7.97;5.90;;;;;;;;;;5033384;28;20349;-64
2023/03/05 10:40:08;;;;;;;8.48;6.30;;;;;;;;;;5030198;28;20601;-68
2023/03/05 10:42:43;;;;;;;8.95;6.30;;;;;;;;;;4997314;28;20086;-64
2023/03/05 10:45:19;;;;;;;9.15;6.70;;;;;;;;;;5033394;28;20041;-67
2023/03/05 10:48:03;;;;;;;8.48;5.75;;;;;;;;;;4989754;28;20041;-67
2023/03/05 10:50:33;;;;;;;8.82;6.03;;;;;;;;;;5028731;28;20602;-64
2023/03/05 10:53:07;;;;;;;7.63;6.05;;;;;;;;;;5011883;28;20029;-67
2023/03/05 10:55:32;;;;;;;6.93;5.43;;;;;;;;;;5029033;28;20083;-70
2023/03/05 10:57:57;;;;;;;9.10;6.63;;;;;;;;;;5031168;28;20029;-69
2023/03/05 11:00:23;;;;;;;8.33;6.07;;;;;;;;;;5029630;28;20161;-66
2023/03/05 11:02:53;;;;;;;8.73;6.00;;;;;;;;;;5009269;28;20657;-68
2023/03/05 11:05:37;;;;;;;9.55;6.38;;;;;;;;;;5029100;28;20038;-69
2023/03/05 11:08:34;;;;;;;7.18;5.70;;;;;;;;;;5009641;28;20071;-67
2023/03/05 11:11:03;;;;;;;8.73;6.30;;;;;;;;;;4991846;28;20045;-66
2023/03/05 11:13:28;;;;;;;9.48;6.60;;;;;;;;;;5028015;28;20047;-66
2023/03/05 11:16:03;;;;;;;7.30;5.88;;;;;;;;;;4995191;28;20461;-68
2023/03/05 11:18:33;;;;;;;8.50;6.43;;;;;;;;;;4993596;28;20913;-68
2023/03/05 11:20:58;;;;;;;;;;;;;;;;;;4997230;28;20048;-67
2023/03/05 11:23:23;;;;;;;8.37;6.07;;;;;;;;;;5028224;28;20301;-70
2023/03/05 11:26:04;;;;;;;8.83;6.20;;;;;;;;;;4993467;28;20061;-65
2023/03/05 11:28:37;;;;;;;7.30;5.85;;;;;;;;;;5029312;28;20862;-67
2023/03/05 11:31:06;;;;;;;8.88;6.30;;;;;;;;;;5005699;28;20512;-67
2023/03/05 11:33:31;;;;;;;7.82;5.55;;;;;;;;;;5032179;28;20136;-66
2023/03/05 11:36:10;;;;;;;8.63;6.03;;;;;;;;;;5034133;28;20132;-68
2023/03/05 11:38:43;;;;;;;7.30;5.93;;;;;;;;;;4999594;28;20064;-68
2023/03/05 11:41:08;;;;;;;9.40;6.40;;;;;;;;;;5014912;28;20044;-67
2023/03/05 11:43:36;;;;;;;8.20;5.90;;;;;;;;;;5002132;28;20196;-70
2023/03/05 11:46:02;;;;;;;10.38;6.05;;;;;;;;;;5036729;28;20400;-67
2023/03/05 11:48:27;;;;;;;7.85;6.00;;;;;;;;;;5002593;28;20474;-66
2023/03/05 11:51:00;;;;;;;8.52;6.10;;;;;;;;;;5032599;28;20067;-65
2023/03/05 11:53:28;;;;;;;7.85;5.97;;;;;;;;;;5036172;28;20488;-67
2023/03/05 11:55:59;;;;;;;7.90;5.95;;;;;;;;;;5018210;28;20041;-65
2023/03/05 11:58:28;;;;;;;9.57;6.22;;;;;;;;;;5039317;28;20520;-66
2023/03/05 12:00:53;;;;;;;8.18;5.60;;;;;;;;;;5031856;28;20405;-66
2023/03/05 12:03:22;;;;;;;8.00;5.60;;;;;;;;;;5035885;28;20036;-68
2023/03/05 12:05:49;;;;;;;6.80;5.57;;;;;;;;;;4992994;28;20298;-68
2023/03/05 12:08:16;;;;;;;9.02;6.20;;;;;;;;;;5009840;28;20251;-70
2023/03/05 12:10:41;;;;;;;7.28;5.68;;;;;;;;;;5015064;28;20041;-64
2023/03/05 12:13:06;;;;;;;8.25;5.80;;;;;;;;;;5033349;28;20045;-69
2023/03/05 12:15:44;;;;;;;7.97;6.10;;;;;;;;;;5032310;28;20048;-69
2023/03/05 12:18:09;;;;;;;10.57;7.88;;;;;;;;;;5031775;28;20428;-65
2023/03/05 12:20:44;;;;;;;13.25;8.20;;;;;;;;;;5033685;28;20107;-73
2023/03/05 12:23:13;;;;;;;12.48;8.13;;;;;;;;;;5022337;28;20037;-70
2023/03/05 12:25:47;;;;;;;13.82;8.65;;;;;;;;;;5017600;28;20079;-67
2023/03/05 12:28:16;;;;;;;13.38;9.10;;;;;;;;;;5035611;28;20043;-62
2023/03/05 12:30:42;;;;;;;12.30;8.90;;;;;;;;;;5033426;28;20747;-64
2023/03/05 12:33:33;;;;;;;11.97;9.27;;;;;;;;;;5038612;28;20275;-65
2023/03/05 12:36:17;;;;;;;12.68;8.55;;;;;;;;;;5032791;28;20211;-65
2023/03/05 12:38:43;;;;;;;13.88;8.70;;;;;;;;;;5016258;28;20037;-67
2023/03/05 12:41:33;;;;;;;12.00;8.27;;;;;;;;;;5036047;28;20083;-65
2023/03/05 12:44:04;;;;;;;12.15;8.60;;;;;;;;;;5017824;28;20033;-66
2023/03/05 12:46:31;;;;;;;11.48;8.23;;;;;;;;;;5035032;28;20424;-68
2023/03/05 12:48:56;;;;;;;12.27;8.70;;;;;;;;;;5001080;28;20076;-66
2023/03/05 12:51:29;;;;;;;12.77;8.18;;;;;;;;;;5017992;28;20102;-65
2023/03/05 12:53:55;;;;;;;12.98;8.32;;;;;;;;;;5018876;28;20037;-72
2023/03/05 12:56:21;;;;;;;13.40;8.85;;;;;;;;;;5022325;28;20048;-62
2023/03/05 12:58:49;;;;;;;10.80;8.18;;;;;;;;;;5023726;28;20032;-62
2023/03/05 13:01:38;;;;;;;12.00;8.85;;;;;;;;;;5007229;28;20052;-67
2023/03/05 13:04:12;;;;;;;9.68;7.72;;;;;;;;;;5025824;28;20040;-64
2023/03/05 13:06:38;;;;;;;12.38;7.93;;;;;;;;;;5018253;28;20037;-67
2023/03/05 13:09:07;;;;;;;11.80;7.57;;;;;;;;;;5030906;28;20068;-68
2023/03/05 13:11:33;;;;;;;10.15;7.40;;;;;;;;;;5000732;28;20142;-66
2023/03/05 13:13:59;;;;;;;11.10;7.50;;;;;;;;;;5016903;28;20094;-69
2023/03/05 13:16:25;;;;;;;9.38;7.00;;;;;;;;;;5004231;28;20037;-67
2023/03/05 13:18:51;;;;;;;10.30;7.28;;;;;;;;;;5006535;28;20044;-67
2023/03/05 13:21:17;;;;;;;9.02;7.07;;;;;;;;;;5017238;28;20031;-68
2023/03/05 13:23:56;;;;;;;9.32;6.47;;;;;;;;;;5006072;28;20211;-65
2023/03/05 13:26:21;;;;;;;8.40;6.82;;;;;;;;;;5007136;28;21484;-64
2023/03/05 13:29:05;;;;;;;9.67;7.07;;;;;;;;;;5017882;28;20071;-65
2023/03/05 13:31:30;;;;;;;9.50;6.80;;;;;;;;;;5016594;28;20080;-61
2023/03/05 13:33:56;;;;;;;8.23;6.38;;;;;;;;;;5016700;28;20398;-64
2023/03/05 13:36:23;;;;;;;10.52;7.18;;;;;;;;;;5019490;28;20532;-65
2023/03/05 13:38:48;;;;;;;7.95;6.35;;;;;;;;;;5023301;28;20469;-65
2023/03/05 13:41:13;;;;;;;9.17;6.67;;;;;;;;;;5016919;28;20091;-66
2023/03/05 13:43:49;;;;;;;9.20;6.77;;;;;;;;;;5036211;28;20033;-67
2023/03/05 13:46:30;;;;;;;9.80;6.57;;;;;;;;;;5017114;28;20025;-68
2023/03/05 13:48:55;;;;;;;9.82;6.95;;;;;;;;;;5033921;28;20438;-65
2023/03/05 13:51:21;;;;;;;8.55;6.18;;;;;;;;;;5035076;28;20083;-67
2023/03/05 13:53:46;;;;;;;9.73;6.22;;;;;;;;;;5016009;28;20069;-66
2023/03/05 13:56:12;;;;;;;8.80;6.40;;;;;;;;;;5015090;28;20355;-66
2023/03/05 13:58:46;;;;;;;8.07;6.80;;;;;;;;;;5004120;28;20326;-68
2023/03/05 14:01:14;;;;;;;9.43;6.53;;;;;;;;;;5032349;28;20029;-63
2023/03/05 14:03:40;;;;;;;8.68;6.68;;;;;;;;;;5015344;28;20041;-67
2023/03/05 14:06:09;;;;;;;8.10;6.28;;;;;;;;;;5010857;28;20537;-64
2023/03/05 14:08:34;;;;;;;13.32;6.60;;;;;;;;;;5001299;28;20501;-63
2023/03/05 14:10:59;;;;;;;8.47;6.20;;;;;;;;;;5016070;28;20052;-66
2023/03/05 14:13:26;;;;;;;8.35;6.70;;;;;;;;;;5016435;28;21078;-67
2023/03/05 14:16:08;;;;;;;8.30;5.47;;;;;;;;;;5027812;28;20041;-65
2023/03/05 14:18:33;;;;;;;9.23;6.32;;;;;;;;;;5029854;28;20049;-65
2023/03/05 14:21:03;;;;;;;8.23;5.93;;;;;;;;;;5028383;28;20134;-64
2023/03/05 14:23:31;;;;;;;8.98;5.80;;;;;;;;;;4988304;28;20560;-66
2023/03/05 14:26:15;;;;;;;7.72;5.93;;;;;;;;;;5028048;28;20033;-66
2023/03/05 14:28:40;;;;;;;7.43;5.60;;;;;;;;;;5027464;28;20048;-66
2023/03/05 14:31:09;;;;;;;9.37;5.97;;;;;;;;;;5016854;28;20048;-67
2023/03/05 14:33:35;;;;;;;8.43;6.50;;;;;;;;;;5004229;28;20334;-65
2023/03/05 14:36:00;;;;;;;8.40;6.40;;;;;;;;;;5017733;28;20131;-62
2023/03/05 14:38:26;;;;;;;8.13;6.13;;;;;;;;;;5018249;28;20494;-67
2023/03/05 14:40:52;;;;;;;8.27;5.93;;;;;;;;;;5020662;28;20498;-64
2023/03/05 14:43:17;;;;;;;7.82;6.15;;;;;;;;;;5038664;28;20085;-63